Time;durP1;ratioP1;P1;durP2;ratioP2;P2;SDS_P1;SDS_P2;PMS_P1;PMS_P2;Temp;Humidity;BMP_temperature;BMP_pressure;BME280_temperature;BME280_humidity;BME280_pressure;Samples;Min_cycle;Max_cycle;Signal;HPM_P1;HPM_P2
2023/12/23 00:00:13;;;;;;;8.93;5.00;;;;;;;5.23;61.00;93234.84;4196595;28;20601;-68
2023/12/23 00:02:16;;;;;;;7.72;4.93;;;;;;;5.15;60.76;93205.50;4209734;28;20099;-67
2023/12/23 00:04:18;;;;;;;7.88;5.30;;;;;;;5.16;60.65;93209.69;4209104;28;20052;-68
2023/12/23 00:06:19;;;;;;;8.20;5.28;;;;;;;5.07;61.03;93214.06;4211515;28;20044;-68
2023/12/23 00:08:21;;;;;;;8.27;4.75;;;;;;;5.13;61.66;93218.63;4197722;28;20124;-68
2023/12/23 00:10:23;;;;;;;7.90;5.18;;;;;;;5.20;62.15;93213.59;4197806;28;20098;-67
2023/12/23 00:12:25;;;;;;;7.85;5.00;;;;;;;5.29;61.22;93205.66;4197706;28;20480;-68
2023/12/23 00:14:27;;;;;;;11.05;5.43;;;;;;;5.13;61.93;93187.47;4209057;28;20509;-67
2023/12/23 00:16:30;;;;;;;8.05;5.20;;;;;;;5.07;61.75;93183.72;4206975;28;20080;-67
2023/12/23 00:18:32;;;;;;;7.93;5.25;;;;;;;5.15;61.30;93175.13;4199650;28;20060;-67
2023/12/23 00:20:36;;;;;;;6.60;5.28;;;;;;;4.97;61.88;93175.31;4200729;28;20048;-68
2023/12/23 00:22:38;;;;;;;7.32;5.00;;;;;;;4.93;62.01;93172.22;4206125;28;20052;-69
2023/12/23 00:24:40;;;;;;;9.25;5.75;;;;;;;4.86;62.25;93155.69;4204800;28;20041;-68
2023/12/23 00:26:42;;;;;;;9.18;5.90;;;;;;;4.81;62.71;93160.53;4205034;28;20137;-68
2023/12/23 00:28:43;;;;;;;8.32;5.97;;;;;;;4.80;63.20;93169.31;4202498;28;20410;-69
2023/12/23 00:30:45;;;;;;;8.13;5.80;;;;;;;4.61;62.98;93157.47;4205958;28;20297;-68
2023/12/23 00:32:47;;;;;;;9.20;5.75;;;;;;;4.80;62.39;93197.03;4191971;28;20060;-67
2023/12/23 00:34:49;;;;;;;7.97;5.60;;;;;;;4.94;62.27;93183.41;4203563;28;20526;-67
2023/12/23 00:36:51;;;;;;;7.82;5.78;;;;;;;5.03;62.29;93155.66;4210590;28;20260;-69
2023/12/23 00:38:53;;;;;;;8.25;5.53;;;;;;;4.94;62.17;93167.84;4200236;28;20061;-68
2023/12/23 00:40:55;;;;;;;9.55;5.63;;;;;;;5.07;61.77;93193.31;4193048;28;20053;-69
2023/12/23 00:42:57;;;;;;;7.70;5.40;;;;;;;5.02;60.84;93186.00;4198078;28;20049;-67
2023/12/23 00:44:58;;;;;;;7.32;5.20;;;;;;;4.99;61.61;93173.38;4207522;28;20044;-68
2023/12/23 00:47:00;;;;;;;7.70;5.50;;;;;;;5.01;61.39;93170.59;4209170;28;20051;-68
2023/12/23 00:49:02;;;;;;;6.85;5.20;;;;;;;5.04;61.99;93163.31;4209333;28;20090;-68
2023/12/23 00:51:05;;;;;;;7.45;5.00;;;;;;;5.01;61.78;93162.81;4199794;28;20447;-68
2023/12/23 00:53:07;;;;;;;7.63;5.18;;;;;;;5.05;61.22;93180.47;4209876;28;20442;-66
2023/12/23 00:55:09;;;;;;;9.35;5.90;;;;;;;4.87;61.77;93178.06;4208945;28;20062;-68
2023/12/23 00:57:11;;;;;;;8.20;6.13;;;;;;;4.96;61.90;93186.66;4200950;28;20379;-67
2023/12/23 00:59:12;;;;;;;8.77;5.75;;;;;;;5.02;61.75;93174.81;4200590;28;20123;-68
2023/12/23 01:01:14;;;;;;;8.10;5.32;;;;;;;5.02;61.45;93178.22;4207089;28;20048;-67
2023/12/23 01:03:16;;;;;;;7.45;4.90;;;;;;;4.98;62.28;93163.16;4207245;28;20423;-67
2023/12/23 01:05:18;;;;;;;9.30;5.30;;;;;;;4.99;61.42;93156.97;4191867;28;20079;-68
2023/12/23 01:07:20;;;;;;;8.32;5.63;;;;;;;4.60;63.11;93147.22;4206672;28;20063;-69
2023/12/23 01:09:22;;;;;;;8.23;6.10;;;;;;;4.23;64.17;93143.28;4200718;28;20045;-67
2023/12/23 01:11:24;;;;;;;8.15;5.50;;;;;;;3.99;64.98;93131.09;4205528;28;20080;-67
2023/12/23 01:13:27;;;;;;;4.72;3.50;;;;;;;4.03;64.30;93140.97;4209513;28;20059;-68
2023/12/23 01:15:28;;;;;;;8.38;3.75;;;;;;;4.31;64.25;93138.94;4206307;28;20052;-66
2023/12/23 01:17:30;;;;;;;6.90;4.53;;;;;;;4.57;63.73;93113.84;4200847;28;20079;-70
2023/12/23 01:19:32;;;;;;;6.50;3.90;;;;;;;4.85;62.02;93114.34;4207491;28;20048;-69
2023/12/23 01:21:34;;;;;;;7.45;4.03;;;;;;;5.06;61.19;93104.25;4201590;28;20048;-66
2023/12/23 01:23:36;;;;;;;7.03;4.70;;;;;;;5.07;61.69;93090.28;4184638;28;20045;-68
2023/12/23 01:25:38;;;;;;;7.28;5.05;;;;;;;5.16;61.98;93104.06;4194535;28;20053;-67
2023/12/23 01:27:40;;;;;;;7.25;4.93;;;;;;;5.19;61.46;93076.97;4196456;28;20078;-70
2023/12/23 01:29:42;;;;;;;9.63;5.28;;;;;;;4.93;62.23;93052.84;4195123;28;20425;-68
2023/12/23 01:31:43;;;;;;;7.15;5.20;;;;;;;4.73;62.93;93046.38;4197774;28;20091;-67
2023/12/23 01:33:45;;;;;;;6.63;4.68;;;;;;;4.75;63.03;93083.34;4207388;28;20051;-69
2023/12/23 01:35:47;;;;;;;8.10;5.15;;;;;;;4.88;62.76;93078.50;4200730;28;20048;-69
2023/12/23 01:37:49;;;;;;;7.35;5.20;;;;;;;4.82;62.81;93068.78;4197152;28;20052;-67
2023/12/23 01:39:51;;;;;;;8.77;5.35;;;;;;;4.81;63.36;93048.97;4206788;28;20059;-67
2023/12/23 01:41:53;;;;;;;11.07;7.75;;;;;;;4.55;63.53;93054.34;4198258;28;20044;-68
2023/12/23 01:43:55;;;;;;;13.05;8.82;;;;;;;4.45;63.85;93084.81;4197261;28;20131;-69
2023/12/23 01:45:59;;;;;;;10.23;5.88;;;;;;;4.47;64.10;93050.00;4191882;28;20119;-68
2023/12/23 01:48:01;;;;;;;13.35;8.48;;;;;;;4.54;64.03;93018.22;4208624;28;20040;-69
2023/12/23 01:50:03;;;;;;;10.40;7.78;;;;;;;4.41;63.63;93039.44;4208894;28;20047;-68
2023/12/23 01:52:05;;;;;;;7.00;5.45;;;;;;;4.01;65.42;93038.47;4203452;28;20491;-65
2023/12/23 01:54:07;;;;;;;8.10;5.63;;;;;;;4.14;65.34;93072.50;4209076;28;20048;-68
2023/12/23 01:56:10;;;;;;;6.95;5.68;;;;;;;4.13;65.25;93029.41;4207818;28;20044;-69
2023/12/23 01:58:12;;;;;;;8.30;5.90;;;;;;;4.31;64.73;93048.19;4185679;28;20099;-69
2023/12/23 02:00:14;;;;;;;8.20;6.20;;;;;;;4.36;64.82;93047.72;4201785;28;20551;-68
2023/12/23 02:02:17;;;;;;;10.32;6.63;;;;;;;4.39;64.34;93026.66;4192535;28;20181;-69
2023/12/23 02:04:19;;;;;;;6.75;3.10;;;;;;;4.68;62.43;93007.97;4189405;28;20106;-69
2023/12/23 02:06:20;;;;;;;1.80;1.17;;;;;;;5.31;58.71;92992.53;4181387;28;20052;-69
2023/12/23 02:08:22;;;;;;;3.90;1.20;;;;;;;5.80;57.18;92999.28;4184154;28;20051;-67
2023/12/23 02:10:24;;;;;;;1.92;1.10;;;;;;;6.32;54.89;92981.25;4188593;28;20060;-70
2023/12/23 02:12:38;;;;;;;2.65;1.00;;;;;;;6.75;53.15;93011.91;4188294;28;20131;-68
2023/12/23 02:14:51;;;;;;;1.88;0.90;;;;;;;7.05;52.42;93024.97;4198298;28;20083;-66
2023/12/23 02:16:53;;;;;;;2.67;0.90;;;;;;;7.17;52.11;92985.28;4187826;28;20091;-68
2023/12/23 02:18:54;;;;;;;1.50;0.85;;;;;;;7.32;51.61;92987.88;4191375;28;20127;-68
2023/12/23 02:20:56;;;;;;;1.25;0.80;;;;;;;7.36;51.01;93006.56;4197735;28;20052;-67
2023/12/23 02:22:58;;;;;;;2.05;0.90;;;;;;;7.42;50.75;93008.47;4195221;28;20502;-69
2023/12/23 02:25:00;;;;;;;3.47;1.10;;;;;;;7.38;50.67;93034.06;4191243;28;20098;-67
2023/12/23 02:27:09;;;;;;;2.08;1.02;;;;;;;7.27;51.24;93000.66;4205666;28;20051;-68
2023/12/23 02:29:12;;;;;;;1.50;0.82;;;;;;;7.39;50.89;93008.78;4188488;28;20160;-68
2023/12/23 02:31:14;;;;;;;1.77;0.88;;;;;;;7.54;50.38;92998.38;4191962;28;20076;-69
2023/12/23 02:33:16;;;;;;;7.00;1.00;;;;;;;7.68;50.36;92981.06;4206992;28;20079;-68
2023/12/23 02:35:18;;;;;;;1.30;0.80;;;;;;;7.79;49.40;92968.38;4202809;28;20047;-68
2023/12/23 02:37:20;;;;;;;3.00;0.90;;;;;;;7.78;49.39;92964.16;4186315;28;20124;-69
2023/12/23 02:39:22;;;;;;;1.77;0.80;;;;;;;7.94;47.95;92996.22;4180647;28;20045;-67
2023/12/23 02:41:23;;;;;;;3.28;0.90;;;;;;;7.86;49.06;92972.88;4208555;28;20045;-68
2023/12/23 02:43:25;;;;;;;1.88;0.80;;;;;;;7.92;49.16;92985.16;4203599;28;20045;-69
2023/12/23 02:45:27;;;;;;;2.55;0.82;;;;;;;7.95;48.81;92966.53;4185030;28;20118;-67
2023/12/23 02:47:29;;;;;;;1.88;1.00;;;;;;;7.96;48.85;92963.75;4208372;28;20055;-69
2023/12/23 02:49:30;;;;;;;1.25;0.80;;;;;;;7.96;48.14;92989.81;4207817;28;20051;-68
2023/12/23 02:51:32;;;;;;;2.75;1.00;;;;;;;7.99;48.32;92971.19;4186073;28;20103;-67
2023/12/23 02:53:34;;;;;;;1.83;1.00;;;;;;;7.89;49.20;92975.09;4197291;28;20489;-69
2023/12/23 02:55:36;;;;;;;3.95;1.00;;;;;;;7.91;48.79;92979.13;4198227;28;20454;-68
2023/12/23 02:57:38;;;;;;;3.13;1.00;;;;;;;8.02;48.24;92920.44;4180739;28;20044;-69
2023/12/23 02:59:40;;;;;;;3.45;2.10;;;;;;;7.58;52.25;92997.00;4196248;28;20451;-67
2023/12/23 03:01:42;;;;;;;4.00;2.67;;;;;;;7.15;53.99;92976.03;4210254;28;20546;-69
2023/12/23 03:03:44;;;;;;;4.95;3.10;;;;;;;6.88;55.14;92998.28;4206349;28;20048;-69
2023/12/23 03:05:45;;;;;;;4.93;3.20;;;;;;;6.22;57.83;92948.66;4204752;28;20663;-68
2023/12/23 03:07:47;;;;;;;4.25;2.90;;;;;;;6.03;58.74;92996.75;4204699;28;20391;-69
2023/12/23 03:09:49;;;;;;;7.82;3.28;;;;;;;5.91;59.68;93010.09;4186134;28;20089;-67
2023/12/23 03:11:51;;;;;;;4.10;3.10;;;;;;;5.96;59.62;93030.41;4203451;28;20045;-68
2023/12/23 03:13:53;;;;;;;5.05;3.05;;;;;;;5.80;60.38;93020.06;4186772;28;20125;-68
2023/12/23 03:15:55;;;;;;;4.78;3.10;;;;;;;5.16;62.35;93046.94;4204903;28;20044;-69
2023/12/23 03:17:57;;;;;;;5.40;3.13;;;;;;;4.96;62.54;93005.00;4189105;28;20072;-69
2023/12/23 03:19:59;;;;;;;5.10;3.10;;;;;;;4.89;63.12;93002.25;4188914;28;20049;-68
2023/12/23 03:22:02;;;;;;;5.97;2.90;;;;;;;4.83;63.80;93018.50;4207688;28;20060;-69
2023/12/23 03:24:04;;;;;;;3.92;2.83;;;;;;;4.97;63.37;93021.38;4183872;28;20049;-68
2023/12/23 03:26:07;;;;;;;6.15;2.90;;;;;;;4.72;64.33;93027.44;4200417;28;20471;-68
2023/12/23 03:28:09;;;;;;;4.32;3.05;;;;;;;4.82;64.57;93047.19;4202384;28;20098;-68
2023/12/23 03:30:11;;;;;;;4.60;2.65;;;;;;;4.76;64.33;93019.34;4187924;28;20060;-67
2023/12/23 03:32:13;;;;;;;5.00;3.20;;;;;;;4.79;63.49;93035.34;4199160;28;20102;-68
2023/12/23 03:34:15;;;;;;;4.18;2.95;;;;;;;4.88;63.93;93016.22;4201135;28;20544;-68
2023/12/23 03:36:17;;;;;;;4.10;3.10;;;;;;;5.01;63.20;93005.34;4209210;28;20055;-69
2023/12/23 03:38:21;;;;;;;4.22;2.83;;;;;;;4.61;64.86;93016.59;4207469;28;20083;-69
2023/12/23 03:40:24;;;;;;;3.83;3.00;;;;;;;4.27;65.24;92986.47;4200357;28;20057;-69
2023/12/23 03:42:26;;;;;;;4.22;3.17;;;;;;;4.05;66.32;93026.81;4201190;28;20040;-70
2023/12/23 03:44:28;;;;;;;4.10;2.80;;;;;;;4.01;66.46;93015.16;4204911;28;20056;-68
2023/12/23 03:46:30;;;;;;;4.53;3.15;;;;;;;4.14;65.70;93015.47;4205647;28;20083;-68
2023/12/23 03:48:31;;;;;;;3.42;2.72;;;;;;;4.05;65.91;93019.03;4203761;28;20048;-68
2023/12/23 03:50:33;;;;;;;4.18;2.70;;;;;;;4.18;65.68;92995.25;4203938;28;20056;-69
2023/12/23 03:52:35;;;;;;;3.28;2.30;;;;;;;4.33;64.63;93013.53;4202779;28;20151;-67
2023/12/23 03:54:37;;;;;;;4.68;3.20;;;;;;;4.51;63.96;92990.81;4193748;28;20139;-67
2023/12/23 03:56:39;;;;;;;5.32;3.00;;;;;;;4.30;64.85;93012.91;4198280;28;20179;-67
2023/12/23 03:58:41;;;;;;;4.05;2.95;;;;;;;4.31;64.74;92985.19;4204788;28;20044;-68
2023/12/23 04:00:43;;;;;;;4.72;3.00;;;;;;;4.50;64.69;93007.38;4197475;28;20049;-68
2023/12/23 04:02:45;;;;;;;4.25;2.45;;;;;;;4.55;64.77;92999.91;4200578;28;20044;-68
2023/12/23 04:04:46;;;;;;;5.10;2.80;;;;;;;4.58;63.85;92990.97;4201321;28;20063;-67
2023/12/23 04:06:48;;;;;;;4.13;2.72;;;;;;;4.66;64.25;92976.22;4206303;28;20086;-68
2023/12/23 04:08:50;;;;;;;4.10;2.80;;;;;;;4.49;64.70;92965.06;4190919;28;20644;-69
2023/12/23 04:10:52;;;;;;;4.30;2.70;;;;;;;4.26;64.14;92972.72;4208498;28;20052;-68
2023/12/23 04:12:53;;;;;;;4.00;2.53;;;;;;;4.36;64.19;92953.56;4191821;28;20043;-67
2023/12/23 04:14:55;;;;;;;3.53;1.90;;;;;;;4.68;61.94;92971.66;4177857;28;20060;-68
2023/12/23 04:16:57;;;;;;;2.33;1.70;;;;;;;5.22;58.61;92978.78;4208150;28;20055;-68
2023/12/23 04:18:59;;;;;;;2.25;1.35;;;;;;;5.86;55.79;92960.44;4209508;28;20134;-69
2023/12/23 04:21:01;;;;;;;1.75;1.10;;;;;;;6.26;54.15;92976.75;4219145;28;20079;-68
2023/12/23 04:23:02;;;;;;;2.75;1.27;;;;;;;6.59;52.99;92986.84;4187093;28;20053;-69
2023/12/23 04:25:05;;;;;;;2.03;0.80;;;;;;;6.84;51.99;93005.66;4203020;28;20060;-69
2023/12/23 04:27:07;;;;;;;2.30;1.00;;;;;;;7.12;50.63;92997.22;4182406;28;20071;-66
2023/12/23 04:29:09;;;;;;;2.83;1.30;;;;;;;7.32;50.32;92995.69;4197543;28;20130;-69
2023/12/23 04:31:11;;;;;;;5.18;2.28;;;;;;;7.06;53.35;92995.34;4193448;28;20048;-67
2023/12/23 04:33:13;;;;;;;3.90;2.58;;;;;;;6.69;56.09;92976.19;4201666;28;20063;-69
2023/12/23 04:35:14;;;;;;;4.60;2.80;;;;;;;6.13;57.69;92971.31;4212144;28;20048;-69
2023/12/23 04:37:16;;;;;;;4.55;2.90;;;;;;;5.77;59.26;92965.88;4217540;28;20044;-69
2023/12/23 04:39:18;;;;;;;5.07;3.05;;;;;;;5.50;60.22;92986.13;4211458;28;20048;-69
2023/12/23 04:41:20;;;;;;;3.33;2.30;;;;;;;5.49;60.49;92976.75;4207150;28;20690;-67
2023/12/23 04:43:22;;;;;;;3.90;2.83;;;;;;;4.95;62.00;92985.22;4208181;28;20122;-68
2023/12/23 04:45:24;;;;;;;4.10;2.30;;;;;;;4.83;62.93;93013.31;4208241;28;20052;-67
2023/12/23 04:47:25;;;;;;;2.58;1.70;;;;;;;4.96;59.78;92991.22;4191997;28;20139;-67
2023/12/23 04:49:27;;;;;;;2.70;1.77;;;;;;;5.23;58.98;92990.00;4210230;28;20060;-65
2023/12/23 04:51:29;;;;;;;2.53;1.42;;;;;;;5.59;56.28;92987.69;4205477;28;20504;-69
2023/12/23 04:53:31;;;;;;;3.40;1.30;;;;;;;6.05;54.50;92979.19;4191186;28;20221;-67
2023/12/23 04:55:33;;;;;;;4.18;1.13;;;;;;;6.52;52.30;92971.16;4208380;28;20497;-70
2023/12/23 04:57:34;;;;;;;3.28;1.85;;;;;;;6.82;54.35;92991.19;4208430;28;20067;-69
2023/12/23 04:59:36;;;;;;;3.47;2.28;;;;;;;6.71;55.74;92998.47;4197527;28;20063;-69
2023/12/23 05:01:38;;;;;;;2.90;2.08;;;;;;;6.43;56.88;93000.81;4210048;28;20117;-69
2023/12/23 05:03:40;;;;;;;4.28;2.28;;;;;;;5.43;59.35;93052.72;4209496;28;20044;-67
2023/12/23 05:05:42;;;;;;;3.17;1.50;;;;;;;5.40;56.74;93027.91;4199071;28;20060;-68
2023/12/23 05:07:44;;;;;;;3.95;2.38;;;;;;;5.47;58.74;93072.19;4210121;28;20351;-70
2023/12/23 05:09:46;;;;;;;4.50;2.60;;;;;;;5.34;60.43;93055.34;4206039;28;20048;-68
2023/12/23 05:11:48;;;;;;;4.80;2.67;;;;;;;5.15;61.79;93071.31;4210613;28;20055;-68
2023/12/23 05:13:49;;;;;;;3.42;2.50;;;;;;;4.95;62.19;93039.72;4196881;28;20049;-68
2023/12/23 05:15:51;;;;;;;4.35;2.67;;;;;;;4.99;62.37;93060.94;4206035;28;20048;-68
2023/12/23 05:17:53;;;;;;;5.55;2.50;;;;;;;4.89;62.79;93035.19;4181478;28;20381;-69
2023/12/23 05:19:56;;;;;;;5.05;2.28;;;;;;;4.97;62.63;93065.50;4208645;28;20044;-69
2023/12/23 05:21:58;;;;;;;5.20;2.70;;;;;;;5.00;62.12;93062.59;4192449;28;20048;-71
2023/12/23 05:24:00;;;;;;;4.55;3.13;;;;;;;4.91;62.70;93054.00;4209466;28;20048;-67
2023/12/23 05:26:02;;;;;;;4.60;2.63;;;;;;;4.85;63.25;93078.81;4208847;28;20109;-69
2023/12/23 05:28:04;;;;;;;3.20;2.40;;;;;;;4.87;63.02;93078.66;4199772;28;20443;-68
2023/12/23 05:30:06;;;;;;;4.88;2.65;;;;;;;4.60;63.45;93061.66;4206331;28;20052;-67
2023/12/23 05:32:08;;;;;;;4.03;2.70;;;;;;;4.41;64.38;93068.78;4197719;28;20048;-69
2023/12/23 05:34:10;;;;;;;3.42;2.35;;;;;;;4.55;64.56;93074.31;4202465;28;20105;-65
2023/12/23 05:36:12;;;;;;;4.13;2.70;;;;;;;4.54;64.13;93062.28;4192755;28;20094;-68
2023/12/23 05:38:14;;;;;;;2.90;1.63;;;;;;;4.88;60.90;93060.34;4203399;28;20546;-69
2023/12/23 05:40:16;;;;;;;3.00;1.77;;;;;;;5.39;58.88;93046.25;4190426;28;20451;-69
2023/12/23 05:42:18;;;;;;;7.60;1.88;;;;;;;5.90;55.97;93049.25;4209946;28;20052;-69
2023/12/23 05:44:19;;;;;;;4.68;1.50;;;;;;;6.38;53.81;93036.94;4203813;28;20070;-69
2023/12/23 05:46:21;;;;;;;2.53;1.13;;;;;;;6.83;52.93;93034.47;4207825;28;20055;-68
2023/12/23 05:48:23;;;;;;;2.67;1.00;;;;;;;7.14;51.83;93024.72;4199276;28;20048;-69
2023/12/23 05:50:25;;;;;;;3.25;1.58;;;;;;;7.42;52.34;93028.47;4207674;28;20052;-69
2023/12/23 05:52:27;;;;;;;2.38;1.30;;;;;;;7.63;51.08;93031.13;4208397;28;20098;-70
2023/12/23 05:54:29;;;;;;;2.85;1.13;;;;;;;7.69;50.34;93038.22;4183436;28;20143;-69
2023/12/23 05:56:31;;;;;;;3.00;1.17;;;;;;;7.91;49.27;93057.34;4199224;28;20044;-70
2023/12/23 05:58:32;;;;;;;2.17;1.30;;;;;;;7.98;48.97;93036.59;4201963;28;20060;-70
2023/12/23 06:00:34;;;;;;;3.55;1.38;;;;;;;8.08;48.72;93055.31;4186556;28;20067;-69
2023/12/23 06:02:36;;;;;;;1.88;1.20;;;;;;;8.12;49.09;93067.00;4195850;28;20051;-70
2023/12/23 06:04:38;;;;;;;4.78;1.10;;;;;;;8.18;48.76;93057.66;4200829;28;20063;-70
2023/12/23 06:06:40;;;;;;;2.10;1.20;;;;;;;8.19;48.91;93030.56;4206478;28;20040;-69
2023/12/23 06:08:41;;;;;;;4.65;1.20;;;;;;;8.27;48.39;93037.47;4208111;28;20106;-70
2023/12/23 06:10:43;;;;;;;2.53;1.40;;;;;;;8.24;48.46;93049.09;4204808;28;20060;-69
2023/12/23 06:12:58;;;;;;;1.88;1.17;;;;;;;8.35;48.50;93034.75;4197313;28;20471;-70
2023/12/23 06:14:59;;;;;;;2.58;1.13;;;;;;;8.31;48.34;93059.59;4193598;28;20415;-69
2023/12/23 06:17:01;;;;;;;3.00;1.20;;;;;;;8.43;47.85;93055.50;4206644;28;20060;-69
2023/12/23 06:19:03;;;;;;;3.33;1.25;;;;;;;8.42;48.90;93055.72;4217306;28;20051;-68
2023/12/23 06:21:05;;;;;;;2.42;1.30;;;;;;;8.39;48.65;93065.50;4189678;28;20040;-69
2023/12/23 06:23:07;;;;;;;3.08;1.38;;;;;;;8.40;48.50;93067.13;4192681;28;20486;-68
2023/12/23 06:25:09;;;;;;;1.95;1.20;;;;;;;8.50;48.88;93064.22;4193862;28;20157;-68
2023/12/23 06:27:10;;;;;;;2.47;1.25;;;;;;;8.41;48.54;93060.13;4188742;28;20701;-71
2023/12/23 06:29:12;;;;;;;1.95;1.17;;;;;;;8.35;49.03;93051.19;4206209;28;20055;-69
2023/12/23 06:31:14;;;;;;;3.63;1.30;;;;;;;8.40;48.77;93045.41;4206218;28;20066;-70
2023/12/23 06:33:16;;;;;;;2.42;1.27;;;;;;;8.41;48.89;93075.78;4195112;28;20040;-69
2023/12/23 06:35:18;;;;;;;5.18;1.40;;;;;;;8.41;48.91;93060.13;4178723;28;21010;-71
2023/12/23 06:37:20;;;;;;;2.00;1.30;;;;;;;8.42;49.07;93046.06;4199879;28;20056;-70
2023/12/23 06:39:24;;;;;;;3.72;1.23;;;;;;;8.49;48.90;93040.91;4183078;28;20055;-70
2023/12/23 06:41:26;;;;;;;2.90;1.13;;;;;;;8.51;49.21;93034.50;4196480;28;20454;-69
2023/12/23 06:43:28;;;;;;;2.13;1.20;;;;;;;8.52;48.82;93015.25;4200109;28;20079;-69
2023/12/23 06:45:50;;;;;;;2.30;1.20;;;;;;;8.69;48.54;93035.84;4198185;28;20055;-70
2023/12/23 06:47:52;;;;;;;2.60;1.40;;;;;;;8.74;48.13;93036.13;4205550;28;20050;-70
2023/12/23 06:49:54;;;;;;;1.98;1.20;;;;;;;8.72;48.93;93072.06;4190728;28;20048;-69
2023/12/23 06:51:56;;;;;;;1.90;1.23;;;;;;;8.75;48.19;93056.00;4206496;28;20048;-70
2023/12/23 06:53:58;;;;;;;3.85;1.58;;;;;;;8.74;48.95;93077.91;4204530;28;20060;-70
2023/12/23 06:56:04;;;;;;;2.75;1.40;;;;;;;8.74;48.95;93067.44;4207779;28;20052;-71
2023/12/23 06:58:07;;;;;;;2.15;1.20;;;;;;;8.70;48.92;93079.25;4196004;28;20400;-70
2023/12/23 07:00:09;;;;;;;2.63;1.45;;;;;;;8.72;49.35;93069.44;4184308;28;20052;-69
2023/12/23 07:02:11;;;;;;;6.28;1.73;;;;;;;8.71;48.92;93075.63;4200880;28;20055;-69
2023/12/23 07:04:13;;;;;;;2.95;1.70;;;;;;;8.78;49.70;93093.00;4195166;28;20069;-69
2023/12/23 07:06:14;;;;;;;8.82;1.77;;;;;;;8.75;49.12;93076.88;4196755;28;20052;-69
2023/12/23 07:08:16;;;;;;;8.43;1.40;;;;;;;8.77;49.32;93072.28;4209603;28;20105;-69
2023/12/23 07:10:18;;;;;;;3.80;1.40;;;;;;;8.79;49.20;93093.78;4200713;28;20187;-70
2023/12/23 07:12:20;;;;;;;5.20;1.60;;;;;;;8.88;49.01;93102.31;4180683;28;20052;-69
2023/12/23 07:14:22;;;;;;;3.17;1.50;;;;;;;8.87;49.00;93101.50;4202458;28;20135;-66
2023/12/23 07:16:24;;;;;;;2.83;1.40;;;;;;;8.81;48.92;93102.25;4188880;28;20052;-69
2023/12/23 07:18:26;;;;;;;4.60;1.52;;;;;;;8.80;49.34;93100.66;4209258;28;20377;-70
2023/12/23 07:20:28;;;;;;;2.47;1.25;;;;;;;8.79;49.06;93093.78;4198026;28;21324;-70
2023/12/23 07:22:29;;;;;;;2.65;1.50;;;;;;;8.82;49.11;93102.06;4191713;28;20140;-70
2023/12/23 07:24:31;;;;;;;2.67;1.42;;;;;;;8.87;49.49;93090.25;4188041;28;20143;-72
2023/12/23 07:26:35;;;;;;;2.92;1.30;;;;;;;8.92;48.62;93093.91;4199618;28;20070;-69
2023/12/23 07:28:36;;;;;;;3.55;1.27;;;;;;;8.92;48.88;93101.75;4196639;28;20487;-70
2023/12/23 07:30:44;;;;;;;7.30;1.45;;;;;;;9.02;49.24;93104.84;4196407;28;20052;-70
2023/12/23 07:32:46;;;;;;;3.53;1.45;;;;;;;9.02;49.06;93088.38;4196913;28;20110;-71
2023/12/23 07:34:49;;;;;;;5.28;1.67;;;;;;;9.06;48.97;93120.97;4203982;28;20048;-71
2023/12/23 07:36:51;;;;;;;5.35;1.60;;;;;;;9.09;48.78;93115.34;4207142;28;20052;-71
2023/12/23 07:38:53;;;;;;;4.10;1.60;;;;;;;9.16;48.14;93123.22;4211046;28;20055;-70
2023/12/23 07:40:55;;;;;;;2.47;1.40;;;;;;;9.20;48.80;93132.31;4213026;28;20375;-69
2023/12/23 07:42:56;;;;;;;4.68;1.80;;;;;;;9.22;48.54;93123.28;4207400;28;20090;-68
2023/12/23 07:44:58;;;;;;;5.78;1.52;;;;;;;9.23;48.44;93137.19;4196452;28;20052;-69
2023/12/23 07:47:00;;;;;;;3.13;1.52;;;;;;;9.30;49.12;93132.81;4202103;28;20284;-69
2023/12/23 07:49:03;;;;;;;4.57;1.60;;;;;;;9.29;48.84;93109.47;4183903;28;20049;-70
2023/12/23 07:51:08;;;;;;;4.45;1.60;;;;;;;9.20;49.20;93109.59;4212318;28;20131;-70
2023/12/23 07:53:10;;;;;;;2.55;1.50;;;;;;;9.31;48.70;93120.53;4206972;28;20070;-69
2023/12/23 07:55:12;;;;;;;2.60;1.63;;;;;;;9.38;48.97;93142.31;4208431;28;20040;-70
2023/12/23 07:57:14;;;;;;;3.85;1.55;;;;;;;9.46;49.38;93144.75;4209056;28;20467;-69
2023/12/23 07:59:16;;;;;;;3.70;1.50;;;;;;;9.65;48.96;93156.38;4201062;28;20071;-70
2023/12/23 08:01:18;;;;;;;3.78;1.70;;;;;;;9.74;47.78;93149.97;4194116;28;20056;-71
2023/12/23 08:03:20;;;;;;;5.55;1.50;;;;;;;9.72;48.71;93159.03;4192408;28;20075;-69
2023/12/23 08:05:21;;;;;;;2.45;1.40;;;;;;;9.69;48.17;93178.53;4184434;28;20059;-71
2023/12/23 08:07:23;;;;;;;3.13;1.50;;;;;;;9.63;48.07;93177.47;4206171;28;20053;-72
2023/12/23 08:09:25;;;;;;;3.33;1.33;;;;;;;9.62;48.60;93170.63;4206970;28;20481;-71
2023/12/23 08:11:27;;;;;;;2.92;1.45;;;;;;;9.76;48.71;93183.78;4207285;28;20475;-70
2023/12/23 08:13:29;;;;;;;5.95;1.73;;;;;;;9.75;48.17;93193.44;4204728;28;20048;-69
2023/12/23 08:15:31;;;;;;;5.82;2.08;;;;;;;9.97;47.76;93202.03;4200485;28;20480;-71
2023/12/23 08:17:32;;;;;;;2.65;1.60;;;;;;;10.02;47.64;93215.38;4194489;28;20530;-70
2023/12/23 08:19:34;;;;;;;4.07;1.70;;;;;;;10.04;47.80;93181.16;4193613;28;20464;-68
2023/12/23 08:21:36;;;;;;;5.25;1.52;;;;;;;10.01;47.98;93192.81;4184787;28;20175;-70
2023/12/23 08:23:38;;;;;;;6.95;1.70;;;;;;;9.99;48.21;93217.56;4200190;28;20365;-71
2023/12/23 08:25:40;;;;;;;5.38;2.05;;;;;;;10.00;48.29;93227.84;4200645;28;20047;-69
2023/12/23 08:27:42;;;;;;;3.88;1.65;;;;;;;9.95;48.39;93211.88;4205417;28;20045;-72
2023/12/23 08:29:44;;;;;;;5.57;1.70;;;;;;;10.05;48.18;93229.88;4208045;28;20132;-69
2023/12/23 08:31:46;;;;;;;3.05;1.40;;;;;;;10.15;47.74;93253.06;4206837;28;20044;-69
2023/12/23 08:33:47;;;;;;;3.33;1.67;;;;;;;9.88;47.99;93239.81;4199433;28;20050;-69
2023/12/23 08:35:49;;;;;;;8.65;1.95;;;;;;;9.77;48.68;93274.34;4211384;28;20060;-71
2023/12/23 08:37:51;;;;;;;4.07;1.70;;;;;;;9.93;48.68;93302.81;4203763;28;20167;-69
2023/12/23 08:39:54;;;;;;;6.82;1.65;;;;;;;9.92;49.10;93337.03;4176532;28;20049;-69
2023/12/23 08:41:56;;;;;;;4.93;2.15;;;;;;;9.87;49.24;93329.72;4199259;28;20123;-73
2023/12/23 08:43:58;;;;;;;7.82;2.40;;;;;;;9.64;50.09;93329.94;4206680;28;20123;-71
2023/12/23 08:46:00;;;;;;;3.90;1.77;;;;;;;9.53;50.50;93349.53;4184202;28;20206;-69
2023/12/23 08:48:01;;;;;;;4.18;1.90;;;;;;;9.53;50.62;93341.72;4209364;28;20069;-70
2023/12/23 08:50:04;;;;;;;5.82;3.17;;;;;;;9.29;51.71;93334.19;4192870;28;20498;-68
2023/12/23 08:52:06;;;;;;;7.50;3.30;;;;;;;8.64;53.91;93374.97;4206904;28;20056;-69
2023/12/23 08:54:08;;;;;;;9.85;3.92;;;;;;;7.83;57.88;93366.88;4210384;28;20048;-71
2023/12/23 08:56:09;;;;;;;10.90;4.13;;;;;;;7.54;59.60;93381.44;4188653;28;20076;-70
2023/12/23 08:58:13;;;;;;;8.27;4.00;;;;;;;7.28;60.46;93385.16;4204805;28;20048;-70
2023/12/23 09:00:15;;;;;;;8.70;4.07;;;;;;;7.14;61.49;93410.13;4202097;28;20059;-70
2023/12/23 09:02:17;;;;;;;11.65;4.70;;;;;;;7.25;61.18;93387.28;4206284;28;20036;-71
2023/12/23 09:04:19;;;;;;;12.50;4.45;;;;;;;7.18;62.08;93431.44;4201216;28;20534;-69
2023/12/23 09:06:21;;;;;;;5.70;3.70;;;;;;;7.04;62.88;93437.38;4201525;28;20475;-71
2023/12/23 09:08:23;;;;;;;9.90;4.32;;;;;;;7.23;62.95;93421.34;4193023;28;20395;-70
2023/12/23 09:10:25;;;;;;;7.93;3.83;;;;;;;7.16;63.88;93431.63;4190599;28;20048;-70
2023/12/23 09:12:26;;;;;;;4.47;3.25;;;;;;;7.00;64.39;93418.66;4208061;28;20109;-71
2023/12/23 09:14:29;;;;;;;7.60;3.70;;;;;;;6.91;64.85;93423.06;4201774;28;20044;-70
2023/12/23 09:16:31;;;;;;;6.95;3.85;;;;;;;6.95;65.47;93432.19;4205745;28;20455;-70
2023/12/23 09:18:33;;;;;;;6.82;4.10;;;;;;;7.02;65.51;93427.09;4206902;28;20060;-70
2023/12/23 09:20:35;;;;;;;7.35;4.05;;;;;;;7.17;64.46;93429.81;4203386;28;20047;-69
2023/12/23 09:22:37;;;;;;;7.80;4.22;;;;;;;7.27;63.59;93422.63;4206811;28;20059;-68
2023/12/23 09:24:41;;;;;;;7.15;3.17;;;;;;;6.72;64.99;93450.28;4202728;28;20040;-70
2023/12/23 09:26:43;;;;;;;6.72;3.13;;;;;;;6.43;65.62;93442.22;4197652;28;20498;-70
2023/12/23 09:28:45;;;;;;;8.02;3.72;;;;;;;6.27;66.61;93472.47;4204293;28;20800;-69
2023/12/23 09:30:47;;;;;;;7.80;3.28;;;;;;;6.21;66.85;93477.50;4206716;28;20584;-70
2023/12/23 09:32:49;;;;;;;6.75;3.95;;;;;;;6.31;66.50;93462.56;4202231;28;20076;-70
2023/12/23 09:34:54;;;;;;;4.60;3.10;;;;;;;6.19;65.97;93493.25;4197859;28;20067;-70
2023/12/23 09:36:56;;;;;;;4.68;2.72;;;;;;;6.01;67.38;93461.41;4199934;28;20051;-69
2023/12/23 09:38:57;;;;;;;4.53;2.75;;;;;;;6.08;66.20;93536.00;4210913;28;20424;-70
2023/12/23 09:40:59;;;;;;;5.47;2.88;;;;;;;5.99;66.44;93481.56;4208568;28;20062;-70